sensor_id;sensor_type;location;lat;lon;timestamp;P1;durP1;ratioP1;P2;durP2;ratioP2
68806;SDS011;55800;54.272;18.558;2024-01-30T00:01:43;50.05;;;27.48;;
68806;SDS011;55800;54.272;18.558;2024-01-30T00:04:13;46.05;;;24.83;;
68806;SDS011;55800;54.272;18.558;2024-01-30T00:06:43;47.67;;;24.60;;
68806;SDS011;55800;54.272;18.558;2024-01-30T00:09:13;47.80;;;25.98;;
68806;SDS011;55800;54.272;18.558;2024-01-30T00:11:43;51.28;;;25.25;;
68806;SDS011;55800;54.272;18.558;2024-01-30T00:14:12;44.22;;;23.67;;
68806;SDS011;55800;54.272;18.558;2024-01-30T00:16:43;54.90;;;26.90;;
68806;SDS011;55800;54.272;18.558;2024-01-30T00:19:13;51.13;;;27.08;;
68806;SDS011;55800;54.272;18.558;2024-01-30T00:21:43;59.72;;;30.40;;
68806;SDS011;55800;54.272;18.558;2024-01-30T00:24:12;55.17;;;31.73;;
68806;SDS011;55800;54.272;18.558;2024-01-30T00:26:41;50.83;;;26.42;;
68806;SDS011;55800;54.272;18.558;2024-01-30T00:29:11;54.08;;;26.27;;
68806;SDS011;55800;54.272;18.558;2024-01-30T00:31:48;49.33;;;25.23;;
68806;SDS011;55800;54.272;18.558;2024-01-30T00:34:17;50.83;;;29.98;;
68806;SDS011;55800;54.272;18.558;2024-01-30T00:36:46;45.28;;;26.33;;
68806;SDS011;55800;54.272;18.558;2024-01-30T00:39:16;42.70;;;23.45;;
68806;SDS011;55800;54.272;18.558;2024-01-30T00:41:46;44.42;;;28.65;;
68806;SDS011;55800;54.272;18.558;2024-01-30T00:44:16;51.38;;;27.27;;
68806;SDS011;55800;54.272;18.558;2024-01-30T00:46:45;51.28;;;27.80;;
68806;SDS011;55800;54.272;18.558;2024-01-30T00:49:16;55.05;;;27.55;;
68806;SDS011;55800;54.272;18.558;2024-01-30T00:51:46;49.63;;;26.60;;
68806;SDS011;55800;54.272;18.558;2024-01-30T00:54:15;46.28;;;26.67;;
68806;SDS011;55800;54.272;18.558;2024-01-30T00:56:44;53.65;;;28.15;;
68806;SDS011;55800;54.272;18.558;2024-01-30T00:59:14;52.47;;;28.08;;
68806;SDS011;55800;54.272;18.558;2024-01-30T01:01:43;47.55;;;27.83;;
68806;SDS011;55800;54.272;18.558;2024-01-30T01:04:14;47.58;;;27.20;;
68806;SDS011;55800;54.272;18.558;2024-01-30T01:06:44;49.75;;;25.85;;
68806;SDS011;55800;54.272;18.558;2024-01-30T01:09:14;52.50;;;25.95;;
68806;SDS011;55800;54.272;18.558;2024-01-30T01:11:43;49.58;;;27.10;;
68806;SDS011;55800;54.272;18.558;2024-01-30T01:14:13;47.17;;;28.50;;
68806;SDS011;55800;54.272;18.558;2024-01-30T01:16:42;57.10;;;28.08;;
68806;SDS011;55800;54.272;18.558;2024-01-30T01:19:13;49.08;;;28.30;;
68806;SDS011;55800;54.272;18.558;2024-01-30T01:21:43;51.00;;;29.13;;
68806;SDS011;55800;54.272;18.558;2024-01-30T01:24:12;47.58;;;28.33;;
68806;SDS011;55800;54.272;18.558;2024-01-30T01:26:42;59.35;;;27.35;;
68806;SDS011;55800;54.272;18.558;2024-01-30T01:29:11;58.97;;;29.52;;
68806;SDS011;55800;54.272;18.558;2024-01-30T01:31:42;54.85;;;27.98;;
68806;SDS011;55800;54.272;18.558;2024-01-30T01:36:43;50.58;;;27.30;;
68806;SDS011;55800;54.272;18.558;2024-01-30T01:39:13;50.20;;;26.73;;
68806;SDS011;55800;54.272;18.558;2024-01-30T01:41:42;49.85;;;28.23;;
68806;SDS011;55800;54.272;18.558;2024-01-30T01:44:12;52.75;;;25.58;;
68806;SDS011;55800;54.272;18.558;2024-01-30T01:46:41;47.60;;;27.95;;
68806;SDS011;55800;54.272;18.558;2024-01-30T01:49:11;55.75;;;29.38;;
68806;SDS011;55800;54.272;18.558;2024-01-30T01:51:43;54.83;;;28.63;;
68806;SDS011;55800;54.272;18.558;2024-01-30T01:54:15;50.00;;;27.52;;
68806;SDS011;55800;54.272;18.558;2024-01-30T01:56:45;55.60;;;31.25;;
68806;SDS011;55800;54.272;18.558;2024-01-30T01:59:14;49.50;;;29.67;;
68806;SDS011;55800;54.272;18.558;2024-01-30T02:01:44;52.65;;;28.77;;
68806;SDS011;55800;54.272;18.558;2024-01-30T02:04:16;50.70;;;27.80;;
68806;SDS011;55800;54.272;18.558;2024-01-30T02:06:47;55.13;;;27.88;;
68806;SDS011;55800;54.272;18.558;2024-01-30T02:09:17;53.95;;;27.13;;
68806;SDS011;55800;54.272;18.558;2024-01-30T02:11:46;50.53;;;28.50;;
68806;SDS011;55800;54.272;18.558;2024-01-30T02:14:16;53.00;;;29.60;;
68806;SDS011;55800;54.272;18.558;2024-01-30T02:16:46;55.45;;;27.02;;
68806;SDS011;55800;54.272;18.558;2024-01-30T02:19:15;55.83;;;28.80;;
68806;SDS011;55800;54.272;18.558;2024-01-30T02:21:46;65.28;;;31.13;;
68806;SDS011;55800;54.272;18.558;2024-01-30T02:24:16;54.20;;;28.38;;
68806;SDS011;55800;54.272;18.558;2024-01-30T02:26:45;58.70;;;32.67;;
68806;SDS011;55800;54.272;18.558;2024-01-30T02:29:15;58.05;;;30.02;;
68806;SDS011;55800;54.272;18.558;2024-01-30T02:31:44;58.88;;;29.75;;
68806;SDS011;55800;54.272;18.558;2024-01-30T02:34:13;54.03;;;30.25;;
68806;SDS011;55800;54.272;18.558;2024-01-30T02:36:43;59.97;;;30.42;;
68806;SDS011;55800;54.272;18.558;2024-01-30T02:39:14;50.70;;;30.67;;
68806;SDS011;55800;54.272;18.558;2024-01-30T02:41:42;64.05;;;32.75;;
68806;SDS011;55800;54.272;18.558;2024-01-30T02:44:12;64.28;;;32.72;;
68806;SDS011;55800;54.272;18.558;2024-01-30T02:46:41;54.17;;;31.60;;
68806;SDS011;55800;54.272;18.558;2024-01-30T02:49:11;65.70;;;33.95;;
68806;SDS011;55800;54.272;18.558;2024-01-30T02:51:40;55.88;;;31.10;;
68806;SDS011;55800;54.272;18.558;2024-01-30T02:54:11;57.97;;;29.52;;
68806;SDS011;55800;54.272;18.558;2024-01-30T02:56:41;56.33;;;30.23;;
68806;SDS011;55800;54.272;18.558;2024-01-30T02:59:10;57.70;;;32.10;;
68806;SDS011;55800;54.272;18.558;2024-01-30T03:01:43;61.70;;;34.10;;
68806;SDS011;55800;54.272;18.558;2024-01-30T03:04:13;54.83;;;31.70;;
68806;SDS011;55800;54.272;18.558;2024-01-30T03:09:16;55.95;;;30.15;;
68806;SDS011;55800;54.272;18.558;2024-01-30T03:11:46;64.72;;;33.13;;
68806;SDS011;55800;54.272;18.558;2024-01-30T03:14:16;63.25;;;31.17;;
68806;SDS011;55800;54.272;18.558;2024-01-30T03:16:45;58.55;;;30.40;;
68806;SDS011;55800;54.272;18.558;2024-01-30T03:19:14;58.03;;;32.70;;
68806;SDS011;55800;54.272;18.558;2024-01-30T03:21:44;55.53;;;30.80;;
68806;SDS011;55800;54.272;18.558;2024-01-30T03:24:14;56.60;;;30.67;;
68806;SDS011;55800;54.272;18.558;2024-01-30T03:26:44;55.72;;;29.88;;
68806;SDS011;55800;54.272;18.558;2024-01-30T03:29:14;53.78;;;29.75;;
68806;SDS011;55800;54.272;18.558;2024-01-30T03:31:43;65.60;;;29.88;;
68806;SDS011;55800;54.272;18.558;2024-01-30T03:34:13;58.03;;;31.65;;
68806;SDS011;55800;54.272;18.558;2024-01-30T03:36:42;57.17;;;28.88;;
68806;SDS011;55800;54.272;18.558;2024-01-30T03:39:12;57.75;;;29.83;;
68806;SDS011;55800;54.272;18.558;2024-01-30T03:41:42;55.97;;;31.42;;
68806;SDS011;55800;54.272;18.558;2024-01-30T03:44:13;57.65;;;30.30;;
68806;SDS011;55800;54.272;18.558;2024-01-30T03:46:42;58.58;;;31.45;;
68806;SDS011;55800;54.272;18.558;2024-01-30T03:49:12;59.05;;;28.92;;
68806;SDS011;55800;54.272;18.558;2024-01-30T03:54:11;58.05;;;25.73;;
68806;SDS011;55800;54.272;18.558;2024-01-30T03:56:41;54.17;;;29.08;;
68806;SDS011;55800;54.272;18.558;2024-01-30T03:59:12;50.47;;;29.33;;
68806;SDS011;55800;54.272;18.558;2024-01-30T04:01:41;51.30;;;29.92;;
68806;SDS011;55800;54.272;18.558;2024-01-30T04:04:11;57.42;;;30.65;;
68806;SDS011;55800;54.272;18.558;2024-01-30T04:06:40;44.72;;;26.20;;
68806;SDS011;55800;54.272;18.558;2024-01-30T04:09:10;64.65;;;30.25;;
68806;SDS011;55800;54.272;18.558;2024-01-30T04:11:40;53.03;;;29.10;;
68806;SDS011;55800;54.272;18.558;2024-01-30T04:14:11;61.83;;;32.00;;
68806;SDS011;55800;54.272;18.558;2024-01-30T04:16:41;47.70;;;26.30;;
68806;SDS011;55800;54.272;18.558;2024-01-30T04:19:10;54.33;;;29.88;;
68806;SDS011;55800;54.272;18.558;2024-01-30T04:21:40;56.95;;;28.25;;
68806;SDS011;55800;54.272;18.558;2024-01-30T04:24:09;58.85;;;31.25;;
68806;SDS011;55800;54.272;18.558;2024-01-30T04:26:39;57.75;;;31.15;;
68806;SDS011;55800;54.272;18.558;2024-01-30T04:29:08;61.50;;;30.25;;
68806;SDS011;55800;54.272;18.558;2024-01-30T04:31:39;50.83;;;29.67;;
68806;SDS011;55800;54.272;18.558;2024-01-30T04:34:08;60.40;;;29.20;;
68806;SDS011;55800;54.272;18.558;2024-01-30T04:36:38;53.33;;;31.02;;
68806;SDS011;55800;54.272;18.558;2024-01-30T04:39:07;54.67;;;29.23;;
68806;SDS011;55800;54.272;18.558;2024-01-30T04:41:36;54.38;;;29.15;;
68806;SDS011;55800;54.272;18.558;2024-01-30T04:44:06;58.78;;;31.40;;
68806;SDS011;55800;54.272;18.558;2024-01-30T04:46:36;54.92;;;29.30;;
68806;SDS011;55800;54.272;18.558;2024-01-30T04:49:06;64.38;;;31.98;;
68806;SDS011;55800;54.272;18.558;2024-01-30T04:51:36;61.08;;;31.15;;
68806;SDS011;55800;54.272;18.558;2024-01-30T04:54:06;53.70;;;29.65;;
68806;SDS011;55800;54.272;18.558;2024-01-30T04:56:36;56.95;;;31.40;;
68806;SDS011;55800;54.272;18.558;2024-01-30T05:01:36;55.63;;;29.13;;
68806;SDS011;55800;54.272;18.558;2024-01-30T05:04:07;62.85;;;32.03;;
68806;SDS011;55800;54.272;18.558;2024-01-30T05:06:43;60.70;;;31.25;;
68806;SDS011;55800;54.272;18.558;2024-01-30T05:09:13;58.10;;;29.88;;
68806;SDS011;55800;54.272;18.558;2024-01-30T05:11:43;54.17;;;30.35;;
68806;SDS011;55800;54.272;18.558;2024-01-30T05:14:12;56.85;;;30.73;;
68806;SDS011;55800;54.272;18.558;2024-01-30T05:19:13;61.05;;;29.33;;
68806;SDS011;55800;54.272;18.558;2024-01-30T05:21:44;47.03;;;27.17;;
68806;SDS011;55800;54.272;18.558;2024-01-30T05:24:13;56.40;;;29.08;;
68806;SDS011;55800;54.272;18.558;2024-01-30T05:26:46;55.60;;;29.20;;
68806;SDS011;55800;54.272;18.558;2024-01-30T05:29:18;53.45;;;30.45;;
68806;SDS011;55800;54.272;18.558;2024-01-30T05:31:48;54.50;;;29.80;;
68806;SDS011;55800;54.272;18.558;2024-01-30T05:34:18;52.92;;;30.25;;
68806;SDS011;55800;54.272;18.558;2024-01-30T05:36:48;49.30;;;28.45;;
68806;SDS011;55800;54.272;18.558;2024-01-30T05:39:17;55.95;;;31.13;;
68806;SDS011;55800;54.272;18.558;2024-01-30T05:41:47;57.60;;;28.52;;
68806;SDS011;55800;54.272;18.558;2024-01-30T05:44:16;57.40;;;29.08;;
68806;SDS011;55800;54.272;18.558;2024-01-30T05:46:46;51.47;;;30.60;;
68806;SDS011;55800;54.272;18.558;2024-01-30T05:49:16;55.47;;;30.25;;
68806;SDS011;55800;54.272;18.558;2024-01-30T05:51:46;59.15;;;30.88;;
68806;SDS011;55800;54.272;18.558;2024-01-30T05:54:15;60.50;;;29.40;;
68806;SDS011;55800;54.272;18.558;2024-01-30T05:56:45;56.08;;;28.83;;
68806;SDS011;55800;54.272;18.558;2024-01-30T05:59:14;63.17;;;31.50;;
68806;SDS011;55800;54.272;18.558;2024-01-30T06:01:45;55.30;;;32.83;;
68806;SDS011;55800;54.272;18.558;2024-01-30T06:04:16;55.50;;;31.73;;
68806;SDS011;55800;54.272;18.558;2024-01-30T06:06:46;60.55;;;33.95;;
68806;SDS011;55800;54.272;18.558;2024-01-30T06:09:16;58.88;;;28.65;;
68806;SDS011;55800;54.272;18.558;2024-01-30T06:11:45;57.38;;;30.67;;
68806;SDS011;55800;54.272;18.558;2024-01-30T06:14:15;56.60;;;31.25;;
68806;SDS011;55800;54.272;18.558;2024-01-30T06:16:44;57.22;;;29.55;;
68806;SDS011;55800;54.272;18.558;2024-01-30T06:19:14;60.75;;;30.67;;
68806;SDS011;55800;54.272;18.558;2024-01-30T06:21:45;59.83;;;32.55;;
68806;SDS011;55800;54.272;18.558;2024-01-30T06:24:14;59.42;;;28.60;;
68806;SDS011;55800;54.272;18.558;2024-01-30T06:26:44;53.78;;;29.50;;
68806;SDS011;55800;54.272;18.558;2024-01-30T06:29:13;50.10;;;29.20;;
68806;SDS011;55800;54.272;18.558;2024-01-30T06:31:46;61.80;;;32.20;;
68806;SDS011;55800;54.272;18.558;2024-01-30T06:34:17;48.17;;;28.77;;
68806;SDS011;55800;54.272;18.558;2024-01-30T06:36:47;61.90;;;32.85;;
68806;SDS011;55800;54.272;18.558;2024-01-30T06:39:17;66.78;;;30.45;;
68806;SDS011;55800;54.272;18.558;2024-01-30T06:41:46;55.25;;;30.38;;
68806;SDS011;55800;54.272;18.558;2024-01-30T06:44:16;57.95;;;30.73;;
68806;SDS011;55800;54.272;18.558;2024-01-30T06:46:46;55.05;;;30.70;;
68806;SDS011;55800;54.272;18.558;2024-01-30T06:49:16;62.55;;;33.95;;
68806;SDS011;55800;54.272;18.558;2024-01-30T06:51:46;57.60;;;30.88;;
68806;SDS011;55800;54.272;18.558;2024-01-30T06:54:15;70.30;;;32.65;;
68806;SDS011;55800;54.272;18.558;2024-01-30T06:56:45;58.95;;;30.10;;
68806;SDS011;55800;54.272;18.558;2024-01-30T06:59:14;62.95;;;31.52;;
68806;SDS011;55800;54.272;18.558;2024-01-30T07:01:44;56.55;;;29.40;;
68806;SDS011;55800;54.272;18.558;2024-01-30T07:04:13;56.65;;;30.13;;
68806;SDS011;55800;54.272;18.558;2024-01-30T07:09:14;56.90;;;30.40;;
68806;SDS011;55800;54.272;18.558;2024-01-30T07:11:43;57.30;;;29.45;;
68806;SDS011;55800;54.272;18.558;2024-01-30T07:14:13;60.03;;;30.73;;
68806;SDS011;55800;54.272;18.558;2024-01-30T07:16:42;62.13;;;29.20;;
68806;SDS011;55800;54.272;18.558;2024-01-30T07:19:12;60.83;;;33.15;;
68806;SDS011;55800;54.272;18.558;2024-01-30T07:21:41;59.88;;;30.30;;
68806;SDS011;55800;54.272;18.558;2024-01-30T07:24:12;60.83;;;31.80;;
68806;SDS011;55800;54.272;18.558;2024-01-30T07:26:42;60.65;;;33.25;;
68806;SDS011;55800;54.272;18.558;2024-01-30T07:29:11;54.63;;;31.08;;
68806;SDS011;55800;54.272;18.558;2024-01-30T07:31:41;55.70;;;32.38;;
68806;SDS011;55800;54.272;18.558;2024-01-30T07:34:10;57.13;;;30.80;;
68806;SDS011;55800;54.272;18.558;2024-01-30T07:36:40;58.03;;;32.20;;
68806;SDS011;55800;54.272;18.558;2024-01-30T07:39:09;64.50;;;33.78;;
68806;SDS011;55800;54.272;18.558;2024-01-30T07:41:40;55.65;;;31.67;;
68806;SDS011;55800;54.272;18.558;2024-01-30T07:44:09;60.83;;;34.28;;
68806;SDS011;55800;54.272;18.558;2024-01-30T07:46:39;61.25;;;34.65;;
68806;SDS011;55800;54.272;18.558;2024-01-30T07:49:09;56.97;;;34.13;;
68806;SDS011;55800;54.272;18.558;2024-01-30T07:51:38;55.78;;;32.03;;
68806;SDS011;55800;54.272;18.558;2024-01-30T07:54:14;61.47;;;32.95;;
68806;SDS011;55800;54.272;18.558;2024-01-30T07:56:46;61.20;;;32.95;;
68806;SDS011;55800;54.272;18.558;2024-01-30T07:59:15;64.50;;;31.65;;
68806;SDS011;55800;54.272;18.558;2024-01-30T08:01:44;62.80;;;31.83;;
68806;SDS011;55800;54.272;18.558;2024-01-30T08:04:13;55.83;;;31.00;;
68806;SDS011;55800;54.272;18.558;2024-01-30T08:06:43;60.28;;;33.85;;
68806;SDS011;55800;54.272;18.558;2024-01-30T08:09:12;63.00;;;32.83;;
68806;SDS011;55800;54.272;18.558;2024-01-30T08:11:42;63.65;;;32.25;;
68806;SDS011;55800;54.272;18.558;2024-01-30T08:14:13;62.60;;;32.28;;
68806;SDS011;55800;54.272;18.558;2024-01-30T08:16:42;68.45;;;33.30;;
68806;SDS011;55800;54.272;18.558;2024-01-30T08:19:11;60.28;;;34.85;;
68806;SDS011;55800;54.272;18.558;2024-01-30T08:21:42;63.95;;;36.53;;
68806;SDS011;55800;54.272;18.558;2024-01-30T08:24:12;60.65;;;35.13;;
68806;SDS011;55800;54.272;18.558;2024-01-30T08:26:41;73.35;;;34.85;;
68806;SDS011;55800;54.272;18.558;2024-01-30T08:29:10;74.82;;;36.35;;
68806;SDS011;55800;54.272;18.558;2024-01-30T08:31:41;68.78;;;36.00;;
68806;SDS011;55800;54.272;18.558;2024-01-30T08:34:11;65.68;;;36.88;;
68806;SDS011;55800;54.272;18.558;2024-01-30T08:36:41;63.50;;;37.75;;
68806;SDS011;55800;54.272;18.558;2024-01-30T08:39:10;67.45;;;34.70;;
68806;SDS011;55800;54.272;18.558;2024-01-30T08:41:39;61.22;;;34.72;;
68806;SDS011;55800;54.272;18.558;2024-01-30T08:44:08;71.22;;;36.05;;
68806;SDS011;55800;54.272;18.558;2024-01-30T08:46:40;67.15;;;35.47;;
68806;SDS011;55800;54.272;18.558;2024-01-30T08:49:09;131.80;;;64.80;;
68806;SDS011;55800;54.272;18.558;2024-01-30T08:51:40;96.50;;;53.80;;
68806;SDS011;55800;54.272;18.558;2024-01-30T08:54:11;84.70;;;44.08;;
68806;SDS011;55800;54.272;18.558;2024-01-30T08:56:40;77.95;;;44.97;;
68806;SDS011;55800;54.272;18.558;2024-01-30T08:59:10;91.85;;;45.13;;
68806;SDS011;55800;54.272;18.558;2024-01-30T09:01:41;79.93;;;43.67;;
68806;SDS011;55800;54.272;18.558;2024-01-30T09:04:25;81.03;;;42.08;;
68806;SDS011;55800;54.272;18.558;2024-01-30T09:06:55;72.68;;;41.53;;
68806;SDS011;55800;54.272;18.558;2024-01-30T09:09:25;67.13;;;36.75;;
68806;SDS011;55800;54.272;18.558;2024-01-30T09:11:55;70.47;;;37.83;;
68806;SDS011;55800;54.272;18.558;2024-01-30T09:14:28;69.15;;;36.83;;
68806;SDS011;55800;54.272;18.558;2024-01-30T09:17:00;61.45;;;35.60;;
68806;SDS011;55800;54.272;18.558;2024-01-30T09:19:30;57.25;;;32.75;;
68806;SDS011;55800;54.272;18.558;2024-01-30T09:22:00;66.38;;;37.33;;
68806;SDS011;55800;54.272;18.558;2024-01-30T09:26:59;54.35;;;33.22;;
68806;SDS011;55800;54.272;18.558;2024-01-30T09:29:28;64.93;;;31.83;;
68806;SDS011;55800;54.272;18.558;2024-01-30T09:31:59;58.78;;;33.05;;
68806;SDS011;55800;54.272;18.558;2024-01-30T09:34:29;61.50;;;32.97;;
68806;SDS011;55800;54.272;18.558;2024-01-30T09:36:59;55.85;;;31.63;;
68806;SDS011;55800;54.272;18.558;2024-01-30T09:39:29;56.22;;;29.80;;
68806;SDS011;55800;54.272;18.558;2024-01-30T09:44:30;50.85;;;26.85;;
68806;SDS011;55800;54.272;18.558;2024-01-30T09:47:04;47.13;;;28.08;;
68806;SDS011;55800;54.272;18.558;2024-01-30T09:49:33;53.97;;;25.30;;
68806;SDS011;55800;54.272;18.558;2024-01-30T09:52:04;43.75;;;25.27;;
68806;SDS011;55800;54.272;18.558;2024-01-30T09:54:34;45.95;;;25.67;;
68806;SDS011;55800;54.272;18.558;2024-01-30T09:57:06;49.85;;;24.15;;
68806;SDS011;55800;54.272;18.558;2024-01-30T09:59:36;38.28;;;23.02;;
68806;SDS011;55800;54.272;18.558;2024-01-30T10:02:08;43.92;;;22.83;;
68806;SDS011;55800;54.272;18.558;2024-01-30T10:04:38;45.65;;;24.73;;
68806;SDS011;55800;54.272;18.558;2024-01-30T10:07:07;35.22;;;20.95;;
68806;SDS011;55800;54.272;18.558;2024-01-30T10:09:39;43.65;;;23.55;;
68806;SDS011;55800;54.272;18.558;2024-01-30T10:12:09;40.45;;;23.35;;
68806;SDS011;55800;54.272;18.558;2024-01-30T10:14:39;43.00;;;23.85;;
68806;SDS011;55800;54.272;18.558;2024-01-30T10:17:11;46.58;;;24.63;;
68806;SDS011;55800;54.272;18.558;2024-01-30T10:19:54;41.53;;;23.90;;
68806;SDS011;55800;54.272;18.558;2024-01-30T10:22:24;49.20;;;23.58;;
68806;SDS011;55800;54.272;18.558;2024-01-30T10:27:24;40.33;;;22.60;;
68806;SDS011;55800;54.272;18.558;2024-01-30T10:29:56;46.92;;;24.95;;
68806;SDS011;55800;54.272;18.558;2024-01-30T10:32:28;48.75;;;25.60;;
68806;SDS011;55800;54.272;18.558;2024-01-30T10:34:57;41.00;;;23.05;;
68806;SDS011;55800;54.272;18.558;2024-01-30T10:40:01;34.67;;;20.92;;
68806;SDS011;55800;54.272;18.558;2024-01-30T10:42:33;39.22;;;21.50;;
68806;SDS011;55800;54.272;18.558;2024-01-30T10:45:09;42.88;;;22.73;;
68806;SDS011;55800;54.272;18.558;2024-01-30T10:47:42;44.33;;;22.23;;
68806;SDS011;55800;54.272;18.558;2024-01-30T10:50:17;45.42;;;23.90;;
68806;SDS011;55800;54.272;18.558;2024-01-30T10:52:46;37.70;;;20.67;;
68806;SDS011;55800;54.272;18.558;2024-01-30T10:55:17;47.55;;;21.17;;
68806;SDS011;55800;54.272;18.558;2024-01-30T10:57:50;47.80;;;23.88;;
68806;SDS011;55800;54.272;18.558;2024-01-30T11:00:20;43.28;;;21.73;;
68806;SDS011;55800;54.272;18.558;2024-01-30T11:02:53;48.28;;;22.33;;
68806;SDS011;55800;54.272;18.558;2024-01-30T11:05:26;40.17;;;20.50;;
68806;SDS011;55800;54.272;18.558;2024-01-30T11:08:09;45.55;;;21.73;;
68806;SDS011;55800;54.272;18.558;2024-01-30T11:10:46;39.88;;;22.17;;
68806;SDS011;55800;54.272;18.558;2024-01-30T11:13:18;39.03;;;22.85;;
68806;SDS011;55800;54.272;18.558;2024-01-30T11:15:48;52.60;;;23.33;;
68806;SDS011;55800;54.272;18.558;2024-01-30T11:18:25;41.47;;;22.73;;
68806;SDS011;55800;54.272;18.558;2024-01-30T11:20:57;40.83;;;21.27;;
68806;SDS011;55800;54.272;18.558;2024-01-30T11:23:28;41.60;;;23.20;;
68806;SDS011;55800;54.272;18.558;2024-01-30T11:25:58;42.28;;;20.95;;
68806;SDS011;55800;54.272;18.558;2024-01-30T11:31:03;41.63;;;21.45;;
68806;SDS011;55800;54.272;18.558;2024-01-30T11:33:36;44.88;;;23.55;;
68806;SDS011;55800;54.272;18.558;2024-01-30T11:36:06;48.53;;;23.38;;
68806;SDS011;55800;54.272;18.558;2024-01-30T11:38:36;43.92;;;21.40;;
68806;SDS011;55800;54.272;18.558;2024-01-30T11:41:08;35.38;;;21.63;;
68806;SDS011;55800;54.272;18.558;2024-01-30T11:43:38;34.40;;;19.63;;
68806;SDS011;55800;54.272;18.558;2024-01-30T11:46:08;37.72;;;22.42;;
68806;SDS011;55800;54.272;18.558;2024-01-30T11:48:39;39.65;;;21.65;;
68806;SDS011;55800;54.272;18.558;2024-01-30T11:51:08;47.95;;;22.05;;
68806;SDS011;55800;54.272;18.558;2024-01-30T11:53:41;39.58;;;21.30;;
68806;SDS011;55800;54.272;18.558;2024-01-30T11:56:10;38.47;;;20.45;;
68806;SDS011;55800;54.272;18.558;2024-01-30T11:58:42;33.97;;;20.00;;
68806;SDS011;55800;54.272;18.558;2024-01-30T12:01:11;37.88;;;19.15;;
68806;SDS011;55800;54.272;18.558;2024-01-30T12:06:17;36.55;;;19.63;;
68806;SDS011;55800;54.272;18.558;2024-01-30T12:08:55;32.97;;;20.73;;
68806;SDS011;55800;54.272;18.558;2024-01-30T12:11:26;40.13;;;19.10;;
68806;SDS011;55800;54.272;18.558;2024-01-30T12:13:57;34.67;;;19.80;;
68806;SDS011;55800;54.272;18.558;2024-01-30T12:16:27;31.95;;;18.48;;
68806;SDS011;55800;54.272;18.558;2024-01-30T12:21:30;34.50;;;19.00;;
68806;SDS011;55800;54.272;18.558;2024-01-30T12:24:02;33.45;;;17.60;;
68806;SDS011;55800;54.272;18.558;2024-01-30T12:26:34;36.70;;;17.20;;
68806;SDS011;55800;54.272;18.558;2024-01-30T12:29:04;29.58;;;14.98;;
68806;SDS011;55800;54.272;18.558;2024-01-30T12:31:33;30.65;;;15.50;;
68806;SDS011;55800;54.272;18.558;2024-01-30T12:34:04;31.23;;;19.38;;
68806;SDS011;55800;54.272;18.558;2024-01-30T12:36:34;32.42;;;17.38;;
68806;SDS011;55800;54.272;18.558;2024-01-30T12:39:03;34.08;;;16.67;;
68806;SDS011;55800;54.272;18.558;2024-01-30T12:44:02;30.27;;;15.63;;
68806;SDS011;55800;54.272;18.558;2024-01-30T12:46:33;32.63;;;18.13;;
68806;SDS011;55800;54.272;18.558;2024-01-30T12:49:04;28.00;;;17.67;;
68806;SDS011;55800;54.272;18.558;2024-01-30T12:51:34;34.42;;;18.38;;
68806;SDS011;55800;54.272;18.558;2024-01-30T12:56:34;29.90;;;17.48;;
68806;SDS011;55800;54.272;18.558;2024-01-30T12:59:03;31.98;;;17.65;;
68806;SDS011;55800;54.272;18.558;2024-01-30T13:01:32;33.22;;;17.77;;
68806;SDS011;55800;54.272;18.558;2024-01-30T13:06:33;27.15;;;17.00;;
68806;SDS011;55800;54.272;18.558;2024-01-30T13:09:02;31.73;;;17.35;;
68806;SDS011;55800;54.272;18.558;2024-01-30T13:11:32;38.10;;;19.25;;
68806;SDS011;55800;54.272;18.558;2024-01-30T13:14:02;39.15;;;17.83;;
68806;SDS011;55800;54.272;18.558;2024-01-30T13:16:33;32.60;;;17.83;;
68806;SDS011;55800;54.272;18.558;2024-01-30T13:19:04;28.88;;;18.15;;
68806;SDS011;55800;54.272;18.558;2024-01-30T13:21:34;35.05;;;19.73;;
68806;SDS011;55800;54.272;18.558;2024-01-30T13:24:04;28.27;;;17.45;;
68806;SDS011;55800;54.272;18.558;2024-01-30T13:26:34;31.55;;;17.90;;
68806;SDS011;55800;54.272;18.558;2024-01-30T13:29:03;33.45;;;17.00;;
68806;SDS011;55800;54.272;18.558;2024-01-30T13:31:33;29.20;;;17.67;;
68806;SDS011;55800;54.272;18.558;2024-01-30T13:34:04;34.47;;;19.42;;
68806;SDS011;55800;54.272;18.558;2024-01-30T13:36:35;34.55;;;15.43;;
68806;SDS011;55800;54.272;18.558;2024-01-30T13:41:37;34.10;;;17.90;;
68806;SDS011;55800;54.272;18.558;2024-01-30T13:46:36;28.35;;;17.35;;
68806;SDS011;55800;54.272;18.558;2024-01-30T13:49:07;33.40;;;17.63;;
68806;SDS011;55800;54.272;18.558;2024-01-30T13:51:37;27.42;;;16.40;;
68806;SDS011;55800;54.272;18.558;2024-01-30T13:54:06;27.98;;;16.27;;
68806;SDS011;55800;54.272;18.558;2024-01-30T13:56:36;31.67;;;18.38;;
68806;SDS011;55800;54.272;18.558;2024-01-30T13:59:06;30.27;;;19.17;;
68806;SDS011;55800;54.272;18.558;2024-01-30T14:01:35;34.42;;;19.15;;
68806;SDS011;55800;54.272;18.558;2024-01-30T14:04:08;34.17;;;18.63;;
68806;SDS011;55800;54.272;18.558;2024-01-30T14:06:41;39.83;;;20.15;;
68806;SDS011;55800;54.272;18.558;2024-01-30T14:09:23;33.55;;;18.92;;
68806;SDS011;55800;54.272;18.558;2024-01-30T14:11:52;37.58;;;20.38;;
68806;SDS011;55800;54.272;18.558;2024-01-30T14:16:51;38.25;;;20.05;;
68806;SDS011;55800;54.272;18.558;2024-01-30T14:21:51;33.75;;;20.38;;
68806;SDS011;55800;54.272;18.558;2024-01-30T14:26:50;35.58;;;17.95;;
68806;SDS011;55800;54.272;18.558;2024-01-30T14:29:20;37.70;;;19.35;;
68806;SDS011;55800;54.272;18.558;2024-01-30T14:31:50;44.38;;;20.65;;
68806;SDS011;55800;54.272;18.558;2024-01-30T14:34:19;37.15;;;19.77;;
68806;SDS011;55800;54.272;18.558;2024-01-30T14:36:50;32.22;;;18.33;;
68806;SDS011;55800;54.272;18.558;2024-01-30T14:39:20;33.90;;;19.13;;
68806;SDS011;55800;54.272;18.558;2024-01-30T14:41:51;38.15;;;19.13;;
68806;SDS011;55800;54.272;18.558;2024-01-30T14:44:20;44.42;;;20.05;;
68806;SDS011;55800;54.272;18.558;2024-01-30T14:46:50;37.08;;;19.33;;
68806;SDS011;55800;54.272;18.558;2024-01-30T14:49:21;36.88;;;20.67;;
68806;SDS011;55800;54.272;18.558;2024-01-30T14:51:51;34.50;;;19.77;;
68806;SDS011;55800;54.272;18.558;2024-01-30T14:54:21;39.33;;;21.17;;
68806;SDS011;55800;54.272;18.558;2024-01-30T14:56:50;38.05;;;19.80;;
68806;SDS011;55800;54.272;18.558;2024-01-30T14:59:22;40.60;;;20.25;;
68806;SDS011;55800;54.272;18.558;2024-01-30T15:01:53;35.05;;;18.60;;
68806;SDS011;55800;54.272;18.558;2024-01-30T15:04:23;35.25;;;20.15;;
68806;SDS011;55800;54.272;18.558;2024-01-30T15:06:53;37.75;;;19.20;;
68806;SDS011;55800;54.272;18.558;2024-01-30T15:09:23;36.53;;;20.15;;
68806;SDS011;55800;54.272;18.558;2024-01-30T15:11:56;37.88;;;19.60;;
68806;SDS011;55800;54.272;18.558;2024-01-30T15:14:26;38.75;;;20.13;;
68806;SDS011;55800;54.272;18.558;2024-01-30T15:16:56;36.92;;;18.73;;
68806;SDS011;55800;54.272;18.558;2024-01-30T15:19:25;40.78;;;19.58;;